sensor_id;sensor_type;location;lat;lon;timestamp;pressure;altitude;pressure_sealevel;temperature;humidity
6387;BME280;3226;42.162;24.756;2023-02-04T00:00:31;99608.59;;;2.71;53.39
6387;BME280;3226;42.162;24.756;2023-02-04T00:03:03;99604.59;;;2.66;53.85
6387;BME280;3226;42.162;24.756;2023-02-04T00:05:32;99604.50;;;2.67;53.84
6387;BME280;3226;42.162;24.756;2023-02-04T00:08:01;99597.72;;;2.65;54.92
6387;BME280;3226;42.162;24.756;2023-02-04T00:10:33;99592.56;;;2.65;55.24
6387;BME280;3226;42.162;24.756;2023-02-04T00:13:01;99586.34;;;2.69;54.87
6387;BME280;3226;42.162;24.756;2023-02-04T00:15:30;99575.25;;;2.67;55.08
6387;BME280;3226;42.162;24.756;2023-02-04T00:17:58;99573.84;;;2.77;53.79
6387;BME280;3226;42.162;24.756;2023-02-04T00:20:26;99562.00;;;2.73;53.39
6387;BME280;3226;42.162;24.756;2023-02-04T00:22:54;99471.72;;;2.17;53.96
6387;BME280;3226;42.162;24.756;2023-02-04T00:25:24;99573.59;;;2.82;53.60
6387;BME280;3226;42.162;24.756;2023-02-04T00:27:51;99570.34;;;2.78;53.82
6387;BME280;3226;42.162;24.756;2023-02-04T00:30:20;99573.16;;;2.73;55.08
6387;BME280;3226;42.162;24.756;2023-02-04T00:32:48;99571.47;;;2.90;55.14
6387;BME280;3226;42.162;24.756;2023-02-04T00:35:20;99570.44;;;2.93;55.40
6387;BME280;3226;42.162;24.756;2023-02-04T00:37:48;99568.50;;;2.80;56.25
6387;BME280;3226;42.162;24.756;2023-02-04T00:40:17;99567.97;;;2.91;56.06
6387;BME280;3226;42.162;24.756;2023-02-04T00:42:46;99563.72;;;3.06;55.03
6387;BME280;3226;42.162;24.756;2023-02-04T00:45:14;99559.81;;;3.15;54.10
6387;BME280;3226;42.162;24.756;2023-02-04T00:47:42;99553.56;;;3.19;53.66
6387;BME280;3226;42.162;24.756;2023-02-04T00:50:10;99559.16;;;3.27;53.38
6387;BME280;3226;42.162;24.756;2023-02-04T00:52:38;99555.81;;;3.25;53.46
6387;BME280;3226;42.162;24.756;2023-02-04T00:55:07;99552.66;;;3.36;53.04
6387;BME280;3226;42.162;24.756;2023-02-04T00:57:35;99535.44;;;3.35;52.46
6387;BME280;3226;42.162;24.756;2023-02-04T01:00:06;99542.31;;;3.36;52.53
6387;BME280;3226;42.162;24.756;2023-02-04T01:02:34;99538.78;;;3.21;52.18
6387;BME280;3226;42.162;24.756;2023-02-04T01:05:02;99543.31;;;3.33;52.05
6387;BME280;3226;42.162;24.756;2023-02-04T01:07:30;99539.13;;;3.31;51.51
6387;BME280;3226;42.162;24.756;2023-02-04T01:09:58;99524.50;;;3.46;50.90
6387;BME280;3226;42.162;24.756;2023-02-04T01:12:26;99516.38;;;3.52;51.07
6387;BME280;3226;42.162;24.756;2023-02-04T01:14:54;99502.28;;;3.26;50.93
6387;BME280;3226;42.162;24.756;2023-02-04T01:17:24;99505.38;;;3.49;51.06
6387;BME280;3226;42.162;24.756;2023-02-04T01:19:52;99498.78;;;3.43;51.01
6387;BME280;3226;42.162;24.756;2023-02-04T01:22:20;99483.19;;;3.28;53.89
6387;BME280;3226;42.162;24.756;2023-02-04T01:24:48;99484.59;;;3.34;52.72
6387;BME280;3226;42.162;24.756;2023-02-04T01:27:16;99478.59;;;3.33;53.19
6387;BME280;3226;42.162;24.756;2023-02-04T01:29:44;99475.47;;;3.43;51.97
6387;BME280;3226;42.162;24.756;2023-02-04T01:32:12;99459.78;;;3.30;53.53
6387;BME280;3226;42.162;24.756;2023-02-04T01:34:42;99454.44;;;3.33;53.46
6387;BME280;3226;42.162;24.756;2023-02-04T01:37:09;99447.59;;;3.32;53.12
6387;BME280;3226;42.162;24.756;2023-02-04T01:39:37;99429.09;;;3.08;56.14
6387;BME280;3226;42.162;24.756;2023-02-04T01:42:06;99396.78;;;2.99;55.22
6387;BME280;3226;42.162;24.756;2023-02-04T01:44:34;99434.59;;;3.17;53.39
6387;BME280;3226;42.162;24.756;2023-02-04T01:47:02;99429.25;;;3.21;52.78
6387;BME280;3226;42.162;24.756;2023-02-04T01:49:30;99432.44;;;3.10;53.08
6387;BME280;3226;42.162;24.756;2023-02-04T01:52:00;99422.81;;;2.96;54.95
6387;BME280;3226;42.162;24.756;2023-02-04T01:54:29;99421.25;;;3.09;55.10
6387;BME280;3226;42.162;24.756;2023-02-04T01:56:57;99415.22;;;3.09;54.87
6387;BME280;3226;42.162;24.756;2023-02-04T01:59:26;99411.31;;;3.17;55.08
6387;BME280;3226;42.162;24.756;2023-02-04T02:01:54;99417.97;;;3.22;55.44
6387;BME280;3226;42.162;24.756;2023-02-04T02:04:28;99406.25;;;2.84;55.29
6387;BME280;3226;42.162;24.756;2023-02-04T02:07:01;99407.41;;;3.10;54.99
6387;BME280;3226;42.162;24.756;2023-02-04T02:09:31;99409.38;;;3.37;55.59
6387;BME280;3226;42.162;24.756;2023-02-04T02:12:00;99399.94;;;3.36;56.34
6387;BME280;3226;42.162;24.756;2023-02-04T02:14:29;99406.13;;;3.17;55.26
6387;BME280;3226;42.162;24.756;2023-02-04T02:16:58;99405.72;;;3.25;55.59
6387;BME280;3226;42.162;24.756;2023-02-04T02:19:29;99395.34;;;3.25;56.24
6387;BME280;3226;42.162;24.756;2023-02-04T02:22:03;99391.34;;;3.20;54.79
6387;BME280;3226;42.162;24.756;2023-02-04T02:24:34;99388.53;;;3.08;54.85
6387;BME280;3226;42.162;24.756;2023-02-04T02:27:05;99390.03;;;3.12;55.28
6387;BME280;3226;42.162;24.756;2023-02-04T02:29:35;99363.06;;;3.16;55.49
6387;BME280;3226;42.162;24.756;2023-02-04T02:32:04;99386.53;;;3.13;56.32
6387;BME280;3226;42.162;24.756;2023-02-04T02:34:33;99366.19;;;2.91;57.19
6387;BME280;3226;42.162;24.756;2023-02-04T02:37:02;99382.84;;;3.17;56.56
6387;BME280;3226;42.162;24.756;2023-02-04T02:39:30;99368.06;;;3.20;56.54
6387;BME280;3226;42.162;24.756;2023-02-04T02:42:00;99365.97;;;3.26;56.28
6387;BME280;3226;42.162;24.756;2023-02-04T02:44:29;99357.75;;;3.34;55.10
6387;BME280;3226;42.162;24.756;2023-02-04T02:46:58;99356.75;;;3.37;55.60
6387;BME280;3226;42.162;24.756;2023-02-04T02:49:27;99348.22;;;3.04;56.92
6387;BME280;3226;42.162;24.756;2023-02-04T02:51:57;99346.41;;;2.90;56.01
6387;BME280;3226;42.162;24.756;2023-02-04T02:54:28;99348.81;;;3.09;56.60
6387;BME280;3226;42.162;24.756;2023-02-04T02:56:57;99348.41;;;3.01;56.30
6387;BME280;3226;42.162;24.756;2023-02-04T02:59:26;99336.44;;;3.14;56.63
6387;BME280;3226;42.162;24.756;2023-02-04T03:01:56;99329.84;;;3.09;56.35
6387;BME280;3226;42.162;24.756;2023-02-04T03:04:28;99319.84;;;3.02;56.49
6387;BME280;3226;42.162;24.756;2023-02-04T03:06:57;99320.13;;;2.82;58.51
6387;BME280;3226;42.162;24.756;2023-02-04T03:09:26;99319.81;;;2.88;58.56
6387;BME280;3226;42.162;24.756;2023-02-04T03:11:55;99312.47;;;2.80;58.89
6387;BME280;3226;42.162;24.756;2023-02-04T03:14:24;99306.19;;;2.84;58.46
6387;BME280;3226;42.162;24.756;2023-02-04T03:16:54;99310.84;;;2.94;56.90
6387;BME280;3226;42.162;24.756;2023-02-04T03:19:23;99293.22;;;2.70;58.84
6387;BME280;3226;42.162;24.756;2023-02-04T03:21:53;99295.31;;;2.94;57.75
6387;BME280;3226;42.162;24.756;2023-02-04T03:24:22;99302.09;;;2.96;58.66
6387;BME280;3226;42.162;24.756;2023-02-04T03:26:50;99295.38;;;2.62;58.29
6387;BME280;3226;42.162;24.756;2023-02-04T03:29:19;99286.56;;;2.50;57.26
6387;BME280;3226;42.162;24.756;2023-02-04T03:31:47;99298.28;;;2.55;59.23
6387;BME280;3226;42.162;24.756;2023-02-04T03:34:16;99311.22;;;2.71;57.96
6387;BME280;3226;42.162;24.756;2023-02-04T03:36:44;99305.63;;;2.79;58.16
6387;BME280;3226;42.162;24.756;2023-02-04T03:39:12;99305.28;;;2.85;59.34
6387;BME280;3226;42.162;24.756;2023-02-04T03:41:40;99302.09;;;2.96;59.33
6387;BME280;3226;42.162;24.756;2023-02-04T03:44:08;99299.66;;;3.09;58.01
6387;BME280;3226;42.162;24.756;2023-02-04T03:46:36;99285.03;;;3.08;57.73
6387;BME280;3226;42.162;24.756;2023-02-04T03:49:04;99288.44;;;3.09;58.66
6387;BME280;3226;42.162;24.756;2023-02-04T03:51:34;99279.44;;;3.00;58.20
6387;BME280;3226;42.162;24.756;2023-02-04T03:54:02;99263.66;;;3.04;57.94
6387;BME280;3226;42.162;24.756;2023-02-04T03:56:30;99267.50;;;3.13;57.38
6387;BME280;3226;42.162;24.756;2023-02-04T03:58:58;99256.97;;;3.16;57.55
6387;BME280;3226;42.162;24.756;2023-02-04T04:01:26;99243.66;;;3.23;55.99
6387;BME280;3226;42.162;24.756;2023-02-04T04:03:54;99252.19;;;3.39;55.18
6387;BME280;3226;42.162;24.756;2023-02-04T04:06:22;99236.19;;;3.32;54.80
6387;BME280;3226;42.162;24.756;2023-02-04T04:08:52;99235.34;;;3.32;55.48
6387;BME280;3226;42.162;24.756;2023-02-04T04:11:20;99227.94;;;3.26;56.16
6387;BME280;3226;42.162;24.756;2023-02-04T04:13:48;99236.75;;;3.38;56.28
6387;BME280;3226;42.162;24.756;2023-02-04T04:16:16;99238.88;;;3.45;55.96
6387;BME280;3226;42.162;24.756;2023-02-04T04:18:46;99235.25;;;3.48;55.56
6387;BME280;3226;42.162;24.756;2023-02-04T04:21:14;99228.31;;;3.34;56.65
6387;BME280;3226;42.162;24.756;2023-02-04T04:23:42;99220.72;;;3.16;57.25
6387;BME280;3226;42.162;24.756;2023-02-04T04:26:12;99226.81;;;3.15;57.60
6387;BME280;3226;42.162;24.756;2023-02-04T04:28:40;99231.19;;;2.84;60.04
6387;BME280;3226;42.162;24.756;2023-02-04T04:31:08;99231.19;;;2.54;59.38
6387;BME280;3226;42.162;24.756;2023-02-04T04:33:36;99216.75;;;2.66;59.63
6387;BME280;3226;42.162;24.756;2023-02-04T04:36:05;99221.59;;;2.56;59.04
6387;BME280;3226;42.162;24.756;2023-02-04T04:38:33;99244.25;;;2.67;59.58
6387;BME280;3226;42.162;24.756;2023-02-04T04:41:01;99243.75;;;2.60;60.00
6387;BME280;3226;42.162;24.756;2023-02-04T04:43:30;99239.19;;;2.80;59.59
6387;BME280;3226;42.162;24.756;2023-02-04T04:45:58;99212.16;;;2.85;59.13
6387;BME280;3226;42.162;24.756;2023-02-04T04:48:26;99223.91;;;2.91;58.75
6387;BME280;3226;42.162;24.756;2023-02-04T04:50:54;99217.75;;;2.78;59.01
6387;BME280;3226;42.162;24.756;2023-02-04T04:53:24;99223.91;;;2.60;59.84
6387;BME280;3226;42.162;24.756;2023-02-04T04:55:52;99209.13;;;2.63;59.80
6387;BME280;3226;42.162;24.756;2023-02-04T04:58:20;99180.19;;;2.72;59.19
6387;BME280;3226;42.162;24.756;2023-02-04T05:00:49;99199.53;;;2.65;60.03
6387;BME280;3226;42.162;24.756;2023-02-04T05:03:17;99200.00;;;2.41;60.47
6387;BME280;3226;42.162;24.756;2023-02-04T05:05:45;99189.38;;;2.62;60.63
6387;BME280;3226;42.162;24.756;2023-02-04T05:08:13;99202.47;;;2.58;61.18
6387;BME280;3226;42.162;24.756;2023-02-04T05:10:43;99203.84;;;2.50;60.38
6387;BME280;3226;42.162;24.756;2023-02-04T05:13:11;99201.78;;;2.71;60.43
6387;BME280;3226;42.162;24.756;2023-02-04T05:15:39;99211.41;;;2.83;59.83
6387;BME280;3226;42.162;24.756;2023-02-04T05:18:09;99192.75;;;2.78;59.70
6387;BME280;3226;42.162;24.756;2023-02-04T05:20:37;99198.66;;;2.80;59.58
6387;BME280;3226;42.162;24.756;2023-02-04T05:23:05;99202.44;;;2.74;60.19
6387;BME280;3226;42.162;24.756;2023-02-04T05:25:33;99194.25;;;2.82;60.14
6387;BME280;3226;42.162;24.756;2023-02-04T05:28:01;99173.38;;;2.85;60.52
6387;BME280;3226;42.162;24.756;2023-02-04T05:30:29;99191.59;;;2.98;60.22
6387;BME280;3226;42.162;24.756;2023-02-04T05:32:57;99177.78;;;2.83;60.27
6387;BME280;3226;42.162;24.756;2023-02-04T05:35:27;99193.63;;;2.93;62.94
6387;BME280;3226;42.162;24.756;2023-02-04T05:37:55;99161.34;;;2.70;61.54
6387;BME280;3226;42.162;24.756;2023-02-04T05:40:23;99178.53;;;2.85;62.10
6387;BME280;3226;42.162;24.756;2023-02-04T05:42:51;99164.56;;;2.73;62.20
6387;BME280;3226;42.162;24.756;2023-02-04T05:45:19;99184.22;;;3.07;61.01
6387;BME280;3226;42.162;24.756;2023-02-04T05:47:47;99197.44;;;3.16;60.63
6387;BME280;3226;42.162;24.756;2023-02-04T05:50:15;99194.84;;;3.02;60.17
6387;BME280;3226;42.162;24.756;2023-02-04T05:52:44;99196.03;;;3.11;60.19
6387;BME280;3226;42.162;24.756;2023-02-04T05:55:12;99194.84;;;3.02;60.54
6387;BME280;3226;42.162;24.756;2023-02-04T05:57:40;99189.38;;;3.07;59.59
6387;BME280;3226;42.162;24.756;2023-02-04T06:00:10;99202.81;;;3.13;59.09
6387;BME280;3226;42.162;24.756;2023-02-04T06:02:39;99196.34;;;3.21;59.48
6387;BME280;3226;42.162;24.756;2023-02-04T06:05:07;99198.53;;;3.12;59.80
6387;BME280;3226;42.162;24.756;2023-02-04T06:07:35;99214.25;;;3.09;60.22
6387;BME280;3226;42.162;24.756;2023-02-04T06:10:04;99194.75;;;3.18;58.95
6387;BME280;3226;42.162;24.756;2023-02-04T06:12:32;99209.56;;;3.30;58.50
6387;BME280;3226;42.162;24.756;2023-02-04T06:15:00;99207.09;;;3.43;58.23
6387;BME280;3226;42.162;24.756;2023-02-04T06:17:29;99201.31;;;3.24;59.02
6387;BME280;3226;42.162;24.756;2023-02-04T06:19:57;99196.16;;;3.24;58.30
6387;BME280;3226;42.162;24.756;2023-02-04T06:22:25;99191.91;;;3.08;59.61
6387;BME280;3226;42.162;24.756;2023-02-04T06:24:53;99202.28;;;3.37;57.76
6387;BME280;3226;42.162;24.756;2023-02-04T06:27:22;99211.94;;;3.04;58.79
6387;BME280;3226;42.162;24.756;2023-02-04T06:29:50;99214.06;;;3.12;59.19
6387;BME280;3226;42.162;24.756;2023-02-04T06:32:19;99197.81;;;3.10;58.93
6387;BME280;3226;42.162;24.756;2023-02-04T06:34:48;99220.09;;;3.42;59.65
6387;BME280;3226;42.162;24.756;2023-02-04T06:37:16;99218.53;;;3.54;58.96
6387;BME280;3226;42.162;24.756;2023-02-04T06:39:44;99215.75;;;3.57;57.19
6387;BME280;3226;42.162;24.756;2023-02-04T06:42:12;99215.22;;;3.37;59.01
6387;BME280;3226;42.162;24.756;2023-02-04T06:44:41;99221.13;;;3.39;58.09
6387;BME280;3226;42.162;24.756;2023-02-04T06:47:09;99218.06;;;3.47;58.13
6387;BME280;3226;42.162;24.756;2023-02-04T06:49:37;99215.50;;;3.61;56.75
6387;BME280;3226;42.162;24.756;2023-02-04T06:52:05;99229.06;;;3.65;56.04
6387;BME280;3226;42.162;24.756;2023-02-04T06:54:34;99221.59;;;3.75;56.24
6387;BME280;3226;42.162;24.756;2023-02-04T06:57:02;99233.50;;;3.92;55.81
6387;BME280;3226;42.162;24.756;2023-02-04T06:59:32;99219.81;;;3.90;55.93
6387;BME280;3226;42.162;24.756;2023-02-04T07:02:03;99228.47;;;4.03;55.56
6387;BME280;3226;42.162;24.756;2023-02-04T07:04:31;99241.81;;;3.97;56.31
6387;BME280;3226;42.162;24.756;2023-02-04T07:06:59;99245.41;;;4.09;55.96
6387;BME280;3226;42.162;24.756;2023-02-04T07:09:28;99245.75;;;4.17;56.39
6387;BME280;3226;42.162;24.756;2023-02-04T07:11:56;99252.13;;;4.26;55.38
6387;BME280;3226;42.162;24.756;2023-02-04T07:14:24;99252.66;;;4.46;54.34
6387;BME280;3226;42.162;24.756;2023-02-04T07:16:52;99245.22;;;4.54;54.91
6387;BME280;3226;42.162;24.756;2023-02-04T07:19:21;99225.06;;;4.58;54.45
6387;BME280;3226;42.162;24.756;2023-02-04T07:21:49;99248.25;;;4.61;55.44
6387;BME280;3226;42.162;24.756;2023-02-04T07:24:19;99234.88;;;4.40;56.54
6387;BME280;3226;42.162;24.756;2023-02-04T07:26:47;99247.94;;;4.38;57.90
6387;BME280;3226;42.162;24.756;2023-02-04T07:29:15;99253.28;;;4.49;56.98
6387;BME280;3226;42.162;24.756;2023-02-04T07:31:51;99252.44;;;4.76;56.26
6387;BME280;3226;42.162;24.756;2023-02-04T07:34:21;99249.75;;;4.91;56.41
6387;BME280;3226;42.162;24.756;2023-02-04T07:36:49;99245.31;;;5.06;56.41
6387;BME280;3226;42.162;24.756;2023-02-04T07:39:17;99230.50;;;4.95;56.61
6387;BME280;3226;42.162;24.756;2023-02-04T07:41:45;99234.44;;;5.01;57.39
6387;BME280;3226;42.162;24.756;2023-02-04T07:44:13;99233.63;;;5.13;56.48
6387;BME280;3226;42.162;24.756;2023-02-04T07:46:41;99230.91;;;5.15;57.00
6387;BME280;3226;42.162;24.756;2023-02-04T07:49:09;99231.94;;;5.12;58.56
6387;BME280;3226;42.162;24.756;2023-02-04T07:51:38;99214.09;;;5.07;58.68
6387;BME280;3226;42.162;24.756;2023-02-04T07:54:06;99203.78;;;4.93;59.03
6387;BME280;3226;42.162;24.756;2023-02-04T07:56:34;99193.84;;;5.13;59.78
6387;BME280;3226;42.162;24.756;2023-02-04T07:59:02;99197.47;;;5.62;58.83
6387;BME280;3226;42.162;24.756;2023-02-04T08:01:30;99200.19;;;6.35;57.42
6387;BME280;3226;42.162;24.756;2023-02-04T08:03:59;99188.72;;;6.62;56.57
6387;BME280;3226;42.162;24.756;2023-02-04T08:06:27;99194.31;;;6.69;55.20
6387;BME280;3226;42.162;24.756;2023-02-04T08:08:56;99191.69;;;6.69;55.26
6387;BME280;3226;42.162;24.756;2023-02-04T08:11:24;99190.06;;;6.79;55.35
6387;BME280;3226;42.162;24.756;2023-02-04T08:13:53;99189.72;;;6.72;55.46
6387;BME280;3226;42.162;24.756;2023-02-04T08:16:21;99187.38;;;6.80;55.81
6387;BME280;3226;42.162;24.756;2023-02-04T08:18:49;99170.44;;;6.86;54.79
6387;BME280;3226;42.162;24.756;2023-02-04T08:21:17;99158.88;;;6.90;54.66
6387;BME280;3226;42.162;24.756;2023-02-04T08:23:45;99174.41;;;7.37;53.44
6387;BME280;3226;42.162;24.756;2023-02-04T08:26:14;99161.16;;;7.52;53.82
6387;BME280;3226;42.162;24.756;2023-02-04T08:28:44;99157.13;;;7.82;52.72
6387;BME280;3226;42.162;24.756;2023-02-04T08:31:12;99153.31;;;7.86;52.54
6387;BME280;3226;42.162;24.756;2023-02-04T08:33:40;99162.34;;;8.15;51.98
6387;BME280;3226;42.162;24.756;2023-02-04T08:36:08;99143.59;;;8.32;51.04
6387;BME280;3226;42.162;24.756;2023-02-04T08:38:36;99133.78;;;8.46;51.48
6387;BME280;3226;42.162;24.756;2023-02-04T08:41:06;99125.44;;;8.85;50.35
6387;BME280;3226;42.162;24.756;2023-02-04T08:43:35;99132.06;;;8.67;50.46
6387;BME280;3226;42.162;24.756;2023-02-04T08:46:03;99138.72;;;9.03;49.07
6387;BME280;3226;42.162;24.756;2023-02-04T08:48:31;99130.63;;;8.63;48.07
6387;BME280;3226;42.162;24.756;2023-02-04T08:50:59;99150.38;;;8.56;46.77
6387;BME280;3226;42.162;24.756;2023-02-04T08:53:27;99140.19;;;8.53;46.38
6387;BME280;3226;42.162;24.756;2023-02-04T08:55:55;99138.66;;;8.93;46.14
6387;BME280;3226;42.162;24.756;2023-02-04T08:58:23;99140.97;;;9.17;44.90
6387;BME280;3226;42.162;24.756;2023-02-04T09:00:52;99132.94;;;8.78;45.27
6387;BME280;3226;42.162;24.756;2023-02-04T09:03:20;99145.00;;;9.21;45.17
6387;BME280;3226;42.162;24.756;2023-02-04T09:05:48;99138.00;;;9.01;44.96
6387;BME280;3226;42.162;24.756;2023-02-04T09:08:16;99146.03;;;9.09;45.04
6387;BME280;3226;42.162;24.756;2023-02-04T09:10:44;99147.59;;;9.21;44.57
6387;BME280;3226;42.162;24.756;2023-02-04T09:13:12;99142.78;;;8.95;44.88
6387;BME280;3226;42.162;24.756;2023-02-04T09:15:40;99120.25;;;8.73;45.60
6387;BME280;3226;42.162;24.756;2023-02-04T09:18:09;99139.63;;;8.71;45.38
6387;BME280;3226;42.162;24.756;2023-02-04T09:20:42;99125.09;;;8.78;45.63
6387;BME280;3226;42.162;24.756;2023-02-04T09:23:11;99126.19;;;8.54;45.63
6387;BME280;3226;42.162;24.756;2023-02-04T09:25:40;99119.75;;;8.79;45.02
6387;BME280;3226;42.162;24.756;2023-02-04T09:28:09;99105.72;;;9.02;44.40
6387;BME280;3226;42.162;24.756;2023-02-04T09:30:39;99113.34;;;8.93;44.58
6387;BME280;3226;42.162;24.756;2023-02-04T09:33:10;99108.28;;;9.23;44.79
6387;BME280;3226;42.162;24.756;2023-02-04T09:35:38;99090.97;;;9.32;42.80
6387;BME280;3226;42.162;24.756;2023-02-04T09:38:07;99109.50;;;9.19;43.54
6387;BME280;3226;42.162;24.756;2023-02-04T09:40:41;99069.56;;;9.38;42.92
6387;BME280;3226;42.162;24.756;2023-02-04T09:43:20;99093.44;;;9.23;43.88
6387;BME280;3226;42.162;24.756;2023-02-04T09:45:49;99082.72;;;9.26;44.10
6387;BME280;3226;42.162;24.756;2023-02-04T09:48:20;99087.84;;;8.76;44.67
6387;BME280;3226;42.162;24.756;2023-02-04T09:50:49;99087.44;;;8.80;44.62
6387;BME280;3226;42.162;24.756;2023-02-04T09:53:20;99082.25;;;9.11;45.27
6387;BME280;3226;42.162;24.756;2023-02-04T09:55:50;99064.53;;;9.15;44.25
6387;BME280;3226;42.162;24.756;2023-02-04T09:58:20;99053.66;;;9.10;44.36
6387;BME280;3226;42.162;24.756;2023-02-04T10:00:57;99075.13;;;9.23;43.57
6387;BME280;3226;42.162;24.756;2023-02-04T10:03:26;99075.38;;;9.71;42.75
6387;BME280;3226;42.162;24.756;2023-02-04T10:05:54;99045.94;;;9.69;43.20
6387;BME280;3226;42.162;24.756;2023-02-04T10:08:27;99071.94;;;9.61;43.44
6387;BME280;3226;42.162;24.756;2023-02-04T10:10:56;99066.06;;;9.78;43.03
6387;BME280;3226;42.162;24.756;2023-02-04T10:13:30;99067.53;;;9.51;42.56
6387;BME280;3226;42.162;24.756;2023-02-04T10:16:00;99043.31;;;9.59;42.46
6387;BME280;3226;42.162;24.756;2023-02-04T10:18:31;99061.50;;;9.71;41.70
6387;BME280;3226;42.162;24.756;2023-02-04T10:21:12;99057.22;;;9.60;42.04
6387;BME280;3226;42.162;24.756;2023-02-04T10:23:43;99065.09;;;9.79;42.40
6387;BME280;3226;42.162;24.756;2023-02-04T10:26:13;99055.53;;;9.39;42.19
6387;BME280;3226;42.162;24.756;2023-02-04T10:28:41;99065.06;;;9.69;42.75
6387;BME280;3226;42.162;24.756;2023-02-04T10:31:27;99050.47;;;9.47;42.84
6387;BME280;3226;42.162;24.756;2023-02-04T10:34:04;99053.34;;;9.64;43.17
6387;BME280;3226;42.162;24.756;2023-02-04T10:36:33;99052.69;;;9.72;42.87
6387;BME280;3226;42.162;24.756;2023-02-04T10:39:02;99043.75;;;9.74;43.15
6387;BME280;3226;42.162;24.756;2023-02-04T10:41:30;99041.59;;;9.29;43.71
6387;BME280;3226;42.162;24.756;2023-02-04T10:44:03;99036.59;;;9.16;44.39
6387;BME280;3226;42.162;24.756;2023-02-04T10:46:32;99031.88;;;9.40;45.30
6387;BME280;3226;42.162;24.756;2023-02-04T10:49:04;99023.28;;;9.19;44.76
6387;BME280;3226;42.162;24.756;2023-02-04T10:51:32;99031.25;;;9.17;44.79
6387;BME280;3226;42.162;24.756;2023-02-04T10:54:00;99013.31;;;8.93;45.33
6387;BME280;3226;42.162;24.756;2023-02-04T10:56:45;99012.09;;;8.45;45.72
6387;BME280;3226;42.162;24.756;2023-02-04T10:59:21;99012.88;;;8.35;46.14
6387;BME280;3226;42.162;24.756;2023-02-04T11:01:54;99006.00;;;8.34;47.11
6387;BME280;3226;42.162;24.756;2023-02-04T11:04:25;99000.78;;;8.34;46.90
6387;BME280;3226;42.162;24.756;2023-02-04T11:06:54;98996.56;;;8.43;47.22
6387;BME280;3226;42.162;24.756;2023-02-04T11:09:22;98996.75;;;8.30;47.31
6387;BME280;3226;42.162;24.756;2023-02-04T11:11:50;98980.41;;;8.07;47.96
6387;BME280;3226;42.162;24.756;2023-02-04T11:14:24;98996.38;;;8.35;47.95
6387;BME280;3226;42.162;24.756;2023-02-04T11:16:54;98999.88;;;8.24;48.47
6387;BME280;3226;42.162;24.756;2023-02-04T11:19:33;98990.81;;;8.18;48.76
6387;BME280;3226;42.162;24.756;2023-02-04T11:22:07;98991.16;;;8.35;48.10
6387;BME280;3226;42.162;24.756;2023-02-04T11:24:47;98984.66;;;8.29;48.48
6387;BME280;3226;42.162;24.756;2023-02-04T11:27:21;98986.31;;;8.30;48.58
6387;BME280;3226;42.162;24.756;2023-02-04T11:29:50;98989.53;;;8.13;49.49
6387;BME280;3226;42.162;24.756;2023-02-04T11:32:30;98974.56;;;8.15;49.95
6387;BME280;3226;42.162;24.756;2023-02-04T11:35:20;98986.03;;;8.23;50.15
6387;BME280;3226;42.162;24.756;2023-02-04T11:37:48;98980.84;;;7.91;50.94
6387;BME280;3226;42.162;24.756;2023-02-04T11:40:26;98928.28;;;7.86;51.65
6387;BME280;3226;42.162;24.756;2023-02-04T11:42:56;98953.44;;;8.18;51.09
6387;BME280;3226;42.162;24.756;2023-02-04T11:45:27;98970.34;;;8.45;50.98
6387;BME280;3226;42.162;24.756;2023-02-04T11:47:58;98978.97;;;8.35;49.42
6387;BME280;3226;42.162;24.756;2023-02-04T11:50:30;98973.66;;;8.47;48.80
6387;BME280;3226;42.162;24.756;2023-02-04T11:53:00;98954.97;;;8.42;49.28
6387;BME280;3226;42.162;24.756;2023-02-04T11:55:29;98877.00;;;8.17;49.03
6387;BME280;3226;42.162;24.756;2023-02-04T11:57:59;98954.03;;;8.74;48.50
6387;BME280;3226;42.162;24.756;2023-02-04T12:00:29;98958.13;;;8.66;48.63
6387;BME280;3226;42.162;24.756;2023-02-04T12:02:59;98956.41;;;8.87;48.92
6387;BME280;3226;42.162;24.756;2023-02-04T12:05:42;98947.44;;;8.79;49.53
6387;BME280;3226;42.162;24.756;2023-02-04T12:08:12;98951.88;;;8.89;49.51
6387;BME280;3226;42.162;24.756;2023-02-04T12:10:47;98939.94;;;8.96;49.79
6387;BME280;3226;42.162;24.756;2023-02-04T12:13:18;98950.22;;;8.97;49.67
6387;BME280;3226;42.162;24.756;2023-02-04T12:15:57;98941.88;;;9.04;49.89
6387;BME280;3226;42.162;24.756;2023-02-04T12:18:27;98948.06;;;9.03;49.40
6387;BME280;3226;42.162;24.756;2023-02-04T12:20:57;98942.81;;;8.93;49.91
6387;BME280;3226;42.162;24.756;2023-02-04T12:23:27;98950.50;;;8.94;50.59
6387;BME280;3226;42.162;24.756;2023-02-04T12:25:55;98959.34;;;9.13;50.71
6387;BME280;3226;42.162;24.756;2023-02-04T12:28:24;98949.97;;;9.10;50.62
6387;BME280;3226;42.162;24.756;2023-02-04T12:30:54;98949.59;;;9.15;51.69
6387;BME280;3226;42.162;24.756;2023-02-04T12:33:22;98931.00;;;9.08;50.44
6387;BME280;3226;42.162;24.756;2023-02-04T12:35:50;98956.22;;;9.29;50.21
6387;BME280;3226;42.162;24.756;2023-02-04T12:38:20;98934.56;;;8.97;49.60
6387;BME280;3226;42.162;24.756;2023-02-04T12:40:48;98956.09;;;8.80;49.42
6387;BME280;3226;42.162;24.756;2023-02-04T12:43:16;98959.81;;;8.87;50.05
6387;BME280;3226;42.162;24.756;2023-02-04T12:45:44;98960.16;;;8.42;49.95
6387;BME280;3226;42.162;24.756;2023-02-04T12:48:15;98963.03;;;8.38;50.65
6387;BME280;3226;42.162;24.756;2023-02-04T12:50:43;98962.56;;;8.23;52.19
6387;BME280;3226;42.162;24.756;2023-02-04T12:53:11;98947.16;;;8.20;53.05
6387;BME280;3226;42.162;24.756;2023-02-04T12:55:41;98961.28;;;8.18;53.43
6387;BME280;3226;42.162;24.756;2023-02-04T12:58:09;98947.63;;;8.04;54.68
6387;BME280;3226;42.162;24.756;2023-02-04T13:00:37;98964.84;;;8.17;53.95
6387;BME280;3226;42.162;24.756;2023-02-04T13:03:05;98954.31;;;7.97;54.45
6387;BME280;3226;42.162;24.756;2023-02-04T13:05:33;98971.78;;;8.06;54.92
6387;BME280;3226;42.162;24.756;2023-02-04T13:08:01;98980.84;;;8.12;54.35
6387;BME280;3226;42.162;24.756;2023-02-04T13:10:29;98978.84;;;8.16;53.74
6387;BME280;3226;42.162;24.756;2023-02-04T13:12:59;98986.84;;;8.24;54.25
6387;BME280;3226;42.162;24.756;2023-02-04T13:15:29;98985.69;;;8.38;53.37
6387;BME280;3226;42.162;24.756;2023-02-04T13:17:58;98989.41;;;8.35;53.70
6387;BME280;3226;42.162;24.756;2023-02-04T13:20:26;98972.72;;;8.27;53.67
6387;BME280;3226;42.162;24.756;2023-02-04T13:22:54;98961.66;;;8.13;54.48
6387;BME280;3226;42.162;24.756;2023-02-04T13:25:22;98963.38;;;8.24;54.55
6387;BME280;3226;42.162;24.756;2023-02-04T13:27:50;98975.41;;;8.15;54.33
6387;BME280;3226;42.162;24.756;2023-02-04T13:30:19;98981.88;;;8.21;54.61
6387;BME280;3226;42.162;24.756;2023-02-04T13:32:47;98978.72;;;7.96;54.94